sensor_id;sensor_type;location;lat;lon;timestamp;P1;durP1;ratioP1;P2;durP2;ratioP2
9698;SDS011;10089;47.876;8.346;2023-03-14T00:00:36;0.40;;;0.40;;
9698;SDS011;10089;47.876;8.346;2023-03-14T00:03:02;1.10;;;0.63;;
9698;SDS011;10089;47.876;8.346;2023-03-14T00:05:28;0.50;;;0.50;;
9698;SDS011;10089;47.876;8.346;2023-03-14T00:07:53;0.73;;;0.60;;
9698;SDS011;10089;47.876;8.346;2023-03-14T00:10:19;0.63;;;0.63;;
9698;SDS011;10089;47.876;8.346;2023-03-14T00:12:45;0.93;;;0.85;;
9698;SDS011;10089;47.876;8.346;2023-03-14T00:15:11;4.57;;;0.70;;
9698;SDS011;10089;47.876;8.346;2023-03-14T00:17:37;1.08;;;0.82;;
9698;SDS011;10089;47.876;8.346;2023-03-14T00:20:05;1.88;;;0.60;;
9698;SDS011;10089;47.876;8.346;2023-03-14T00:22:39;0.52;;;0.50;;
9698;SDS011;10089;47.876;8.346;2023-03-14T00:25:06;0.60;;;0.60;;
9698;SDS011;10089;47.876;8.346;2023-03-14T00:27:33;0.55;;;0.50;;
9698;SDS011;10089;47.876;8.346;2023-03-14T00:29:59;0.75;;;0.75;;
9698;SDS011;10089;47.876;8.346;2023-03-14T00:32:25;0.55;;;0.55;;
9698;SDS011;10089;47.876;8.346;2023-03-14T00:34:51;0.55;;;0.55;;
9698;SDS011;10089;47.876;8.346;2023-03-14T00:37:16;3.03;;;0.70;;
9698;SDS011;10089;47.876;8.346;2023-03-14T00:39:42;0.75;;;0.73;;
9698;SDS011;10089;47.876;8.346;2023-03-14T00:42:08;0.57;;;0.57;;
9698;SDS011;10089;47.876;8.346;2023-03-14T00:44:34;0.60;;;0.60;;
9698;SDS011;10089;47.876;8.346;2023-03-14T00:47:00;0.70;;;0.70;;
9698;SDS011;10089;47.876;8.346;2023-03-14T00:49:25;0.75;;;0.75;;
9698;SDS011;10089;47.876;8.346;2023-03-14T00:51:51;1.00;;;0.80;;
9698;SDS011;10089;47.876;8.346;2023-03-14T00:54:17;0.52;;;0.50;;
9698;SDS011;10089;47.876;8.346;2023-03-14T00:56:44;1.38;;;0.82;;
9698;SDS011;10089;47.876;8.346;2023-03-14T00:59:09;0.70;;;0.70;;
9698;SDS011;10089;47.876;8.346;2023-03-14T01:01:35;1.10;;;0.80;;
9698;SDS011;10089;47.876;8.346;2023-03-14T01:04:01;0.73;;;0.73;;
9698;SDS011;10089;47.876;8.346;2023-03-14T01:06:27;0.88;;;0.77;;
9698;SDS011;10089;47.876;8.346;2023-03-14T01:08:54;1.60;;;0.60;;
9698;SDS011;10089;47.876;8.346;2023-03-14T01:11:25;1.38;;;0.80;;
9698;SDS011;10089;47.876;8.346;2023-03-14T01:13:53;0.80;;;0.80;;
9698;SDS011;10089;47.876;8.346;2023-03-14T01:16:19;0.60;;;0.60;;
9698;SDS011;10089;47.876;8.346;2023-03-14T01:18:47;0.88;;;0.85;;
9698;SDS011;10089;47.876;8.346;2023-03-14T01:23:43;1.52;;;0.70;;
9698;SDS011;10089;47.876;8.346;2023-03-14T01:26:10;0.70;;;0.70;;
9698;SDS011;10089;47.876;8.346;2023-03-14T01:28:36;0.88;;;0.70;;
9698;SDS011;10089;47.876;8.346;2023-03-14T01:31:06;1.15;;;0.90;;
9698;SDS011;10089;47.876;8.346;2023-03-14T01:33:34;0.70;;;0.70;;
9698;SDS011;10089;47.876;8.346;2023-03-14T01:36:00;1.17;;;0.80;;
9698;SDS011;10089;47.876;8.346;2023-03-14T01:38:30;2.17;;;0.68;;
9698;SDS011;10089;47.876;8.346;2023-03-14T01:40:57;0.73;;;0.70;;
9698;SDS011;10089;47.876;8.346;2023-03-14T01:43:23;1.25;;;0.75;;
9698;SDS011;10089;47.876;8.346;2023-03-14T01:51:12;0.65;;;0.60;;
9698;SDS011;10089;47.876;8.346;2023-03-14T01:53:42;0.50;;;0.50;;
9698;SDS011;10089;47.876;8.346;2023-03-14T01:56:09;0.50;;;0.50;;
9698;SDS011;10089;47.876;8.346;2023-03-14T01:58:37;1.13;;;0.60;;
9698;SDS011;10089;47.876;8.346;2023-03-14T02:01:07;0.57;;;0.57;;
9698;SDS011;10089;47.876;8.346;2023-03-14T02:03:36;2.63;;;0.70;;
9698;SDS011;10089;47.876;8.346;2023-03-14T02:06:09;1.85;;;0.80;;
9698;SDS011;10089;47.876;8.346;2023-03-14T02:08:36;1.60;;;0.80;;
9698;SDS011;10089;47.876;8.346;2023-03-14T02:11:03;1.05;;;0.70;;
9698;SDS011;10089;47.876;8.346;2023-03-14T02:13:29;1.63;;;0.57;;
9698;SDS011;10089;47.876;8.346;2023-03-14T02:15:55;0.70;;;0.70;;
9698;SDS011;10089;47.876;8.346;2023-03-14T02:18:20;1.65;;;0.70;;
9698;SDS011;10089;47.876;8.346;2023-03-14T02:23:15;1.30;;;0.85;;
9698;SDS011;10089;47.876;8.346;2023-03-14T02:26:01;0.82;;;0.63;;
9698;SDS011;10089;47.876;8.346;2023-03-14T02:28:34;0.88;;;0.68;;
9698;SDS011;10089;47.876;8.346;2023-03-14T02:30:59;1.00;;;0.68;;
9698;SDS011;10089;47.876;8.346;2023-03-14T02:33:25;1.70;;;0.60;;
9698;SDS011;10089;47.876;8.346;2023-03-14T02:35:53;0.50;;;0.50;;
9698;SDS011;10089;47.876;8.346;2023-03-14T02:41:01;1.65;;;0.70;;
9698;SDS011;10089;47.876;8.346;2023-03-14T02:43:27;2.85;;;0.63;;
9698;SDS011;10089;47.876;8.346;2023-03-14T02:45:53;3.22;;;0.70;;
9698;SDS011;10089;47.876;8.346;2023-03-14T02:51:00;1.42;;;0.60;;
9698;SDS011;10089;47.876;8.346;2023-03-14T02:53:31;1.17;;;0.52;;
9698;SDS011;10089;47.876;8.346;2023-03-14T02:55:58;0.75;;;0.70;;
9698;SDS011;10089;47.876;8.346;2023-03-14T02:58:25;2.30;;;0.88;;
9698;SDS011;10089;47.876;8.346;2023-03-14T03:00:51;2.28;;;1.05;;
9698;SDS011;10089;47.876;8.346;2023-03-14T03:03:17;1.63;;;0.80;;
9698;SDS011;10089;47.876;8.346;2023-03-14T03:05:43;1.77;;;0.75;;
9698;SDS011;10089;47.876;8.346;2023-03-14T03:08:12;1.20;;;0.70;;
9698;SDS011;10089;47.876;8.346;2023-03-14T03:10:38;3.47;;;1.00;;
9698;SDS011;10089;47.876;8.346;2023-03-14T03:13:04;4.00;;;1.17;;
9698;SDS011;10089;47.876;8.346;2023-03-14T03:15:29;3.00;;;1.08;;
9698;SDS011;10089;47.876;8.346;2023-03-14T03:17:56;2.08;;;1.10;;
9698;SDS011;10089;47.876;8.346;2023-03-14T03:20:21;2.70;;;1.30;;
9698;SDS011;10089;47.876;8.346;2023-03-14T03:22:47;3.22;;;0.80;;
9698;SDS011;10089;47.876;8.346;2023-03-14T03:25:14;1.02;;;0.93;;
9698;SDS011;10089;47.876;8.346;2023-03-14T03:27:41;3.22;;;1.23;;
9698;SDS011;10089;47.876;8.346;2023-03-14T03:30:06;2.05;;;1.10;;
9698;SDS011;10089;47.876;8.346;2023-03-14T03:32:33;1.98;;;0.80;;
9698;SDS011;10089;47.876;8.346;2023-03-14T03:34:59;2.50;;;0.90;;
9698;SDS011;10089;47.876;8.346;2023-03-14T03:37:26;2.65;;;0.82;;
9698;SDS011;10089;47.876;8.346;2023-03-14T03:39:52;1.13;;;0.80;;
9698;SDS011;10089;47.876;8.346;2023-03-14T03:42:18;1.58;;;0.60;;
9698;SDS011;10089;47.876;8.346;2023-03-14T03:44:44;3.50;;;1.00;;
9698;SDS011;10089;47.876;8.346;2023-03-14T03:47:10;4.70;;;1.15;;
9698;SDS011;10089;47.876;8.346;2023-03-14T03:49:36;4.43;;;0.80;;
9698;SDS011;10089;47.876;8.346;2023-03-14T03:52:01;1.67;;;0.80;;
9698;SDS011;10089;47.876;8.346;2023-03-14T03:54:27;1.63;;;0.70;;
9698;SDS011;10089;47.876;8.346;2023-03-14T03:56:54;4.70;;;1.02;;
9698;SDS011;10089;47.876;8.346;2023-03-14T03:59:20;1.98;;;0.80;;
9698;SDS011;10089;47.876;8.346;2023-03-14T04:01:46;5.15;;;1.25;;
9698;SDS011;10089;47.876;8.346;2023-03-14T04:04:12;0.60;;;0.60;;
9698;SDS011;10089;47.876;8.346;2023-03-14T04:06:38;4.72;;;1.52;;
9698;SDS011;10089;47.876;8.346;2023-03-14T04:09:04;3.35;;;1.05;;
9698;SDS011;10089;47.876;8.346;2023-03-14T04:11:30;2.17;;;0.75;;
9698;SDS011;10089;47.876;8.346;2023-03-14T04:13:55;1.98;;;0.90;;
9698;SDS011;10089;47.876;8.346;2023-03-14T04:16:22;0.98;;;0.80;;
9698;SDS011;10089;47.876;8.346;2023-03-14T04:18:50;2.03;;;0.80;;
9698;SDS011;10089;47.876;8.346;2023-03-14T04:21:16;3.42;;;1.00;;
9698;SDS011;10089;47.876;8.346;2023-03-14T04:23:42;0.93;;;0.80;;
9698;SDS011;10089;47.876;8.346;2023-03-14T04:26:08;0.80;;;0.70;;
9698;SDS011;10089;47.876;8.346;2023-03-14T04:28:34;1.30;;;0.77;;
9698;SDS011;10089;47.876;8.346;2023-03-14T04:31:08;2.47;;;0.90;;
9698;SDS011;10089;47.876;8.346;2023-03-14T04:33:35;1.65;;;0.80;;
9698;SDS011;10089;47.876;8.346;2023-03-14T04:36:02;1.00;;;0.60;;
9698;SDS011;10089;47.876;8.346;2023-03-14T04:38:28;1.42;;;0.73;;
9698;SDS011;10089;47.876;8.346;2023-03-14T04:40:54;1.35;;;0.65;;
9698;SDS011;10089;47.876;8.346;2023-03-14T04:43:20;4.78;;;0.70;;
9698;SDS011;10089;47.876;8.346;2023-03-14T04:45:46;0.63;;;0.63;;
9698;SDS011;10089;47.876;8.346;2023-03-14T04:48:12;0.93;;;0.77;;
9698;SDS011;10089;47.876;8.346;2023-03-14T04:50:38;2.50;;;0.90;;
9698;SDS011;10089;47.876;8.346;2023-03-14T04:53:04;3.85;;;1.00;;
9698;SDS011;10089;47.876;8.346;2023-03-14T04:55:30;1.40;;;1.02;;
9698;SDS011;10089;47.876;8.346;2023-03-14T04:57:57;1.05;;;0.65;;
9698;SDS011;10089;47.876;8.346;2023-03-14T05:00:24;1.45;;;0.65;;
9698;SDS011;10089;47.876;8.346;2023-03-14T05:02:50;1.23;;;0.52;;
9698;SDS011;10089;47.876;8.346;2023-03-14T05:05:16;1.30;;;0.63;;
9698;SDS011;10089;47.876;8.346;2023-03-14T05:07:42;1.17;;;0.80;;
9698;SDS011;10089;47.876;8.346;2023-03-14T05:10:08;1.92;;;0.70;;
9698;SDS011;10089;47.876;8.346;2023-03-14T05:12:34;4.40;;;0.90;;
9698;SDS011;10089;47.876;8.346;2023-03-14T05:15:00;1.20;;;1.10;;
9698;SDS011;10089;47.876;8.346;2023-03-14T05:17:26;3.67;;;0.75;;
9698;SDS011;10089;47.876;8.346;2023-03-14T05:19:52;0.73;;;0.73;;
9698;SDS011;10089;47.876;8.346;2023-03-14T05:22:17;0.68;;;0.60;;
9698;SDS011;10089;47.876;8.346;2023-03-14T05:24:43;1.15;;;0.90;;
9698;SDS011;10089;47.876;8.346;2023-03-14T05:27:09;2.05;;;0.70;;
9698;SDS011;10089;47.876;8.346;2023-03-14T05:29:35;0.60;;;0.60;;
9698;SDS011;10089;47.876;8.346;2023-03-14T05:32:01;1.63;;;0.80;;
9698;SDS011;10089;47.876;8.346;2023-03-14T05:34:26;0.63;;;0.63;;
9698;SDS011;10089;47.876;8.346;2023-03-14T05:36:52;2.33;;;0.63;;
9698;SDS011;10089;47.876;8.346;2023-03-14T05:39:18;1.20;;;0.60;;
9698;SDS011;10089;47.876;8.346;2023-03-14T05:41:44;0.55;;;0.55;;
9698;SDS011;10089;47.876;8.346;2023-03-14T05:44:09;0.77;;;0.77;;
9698;SDS011;10089;47.876;8.346;2023-03-14T05:46:35;2.30;;;0.90;;
9698;SDS011;10089;47.876;8.346;2023-03-14T05:49:01;0.70;;;0.40;;
9698;SDS011;10089;47.876;8.346;2023-03-14T05:51:27;0.68;;;0.60;;
9698;SDS011;10089;47.876;8.346;2023-03-14T05:53:52;1.63;;;0.85;;
9698;SDS011;10089;47.876;8.346;2023-03-14T05:56:18;2.13;;;0.80;;
9698;SDS011;10089;47.876;8.346;2023-03-14T05:58:44;0.82;;;0.70;;
9698;SDS011;10089;47.876;8.346;2023-03-14T06:01:10;0.60;;;0.60;;
9698;SDS011;10089;47.876;8.346;2023-03-14T06:03:35;0.93;;;0.73;;
9698;SDS011;10089;47.876;8.346;2023-03-14T06:06:01;0.73;;;0.73;;
9698;SDS011;10089;47.876;8.346;2023-03-14T06:08:27;1.10;;;1.00;;
9698;SDS011;10089;47.876;8.346;2023-03-14T06:10:53;0.63;;;0.60;;
9698;SDS011;10089;47.876;8.346;2023-03-14T06:13:19;1.05;;;0.73;;
9698;SDS011;10089;47.876;8.346;2023-03-14T06:15:45;0.77;;;0.77;;
9698;SDS011;10089;47.876;8.346;2023-03-14T06:18:11;0.75;;;0.70;;
9698;SDS011;10089;47.876;8.346;2023-03-14T06:20:39;0.60;;;0.60;;
9698;SDS011;10089;47.876;8.346;2023-03-14T06:23:05;0.70;;;0.60;;
9698;SDS011;10089;47.876;8.346;2023-03-14T06:25:32;1.25;;;0.60;;
9698;SDS011;10089;47.876;8.346;2023-03-14T06:27:58;0.57;;;0.52;;
9698;SDS011;10089;47.876;8.346;2023-03-14T06:30:24;0.57;;;0.57;;
9698;SDS011;10089;47.876;8.346;2023-03-14T06:32:50;0.55;;;0.55;;
9698;SDS011;10089;47.876;8.346;2023-03-14T06:35:15;1.15;;;1.00;;
9698;SDS011;10089;47.876;8.346;2023-03-14T06:37:41;0.75;;;0.70;;
9698;SDS011;10089;47.876;8.346;2023-03-14T06:40:08;0.93;;;0.70;;
9698;SDS011;10089;47.876;8.346;2023-03-14T06:42:35;0.60;;;0.60;;
9698;SDS011;10089;47.876;8.346;2023-03-14T06:45:01;2.95;;;0.70;;
9698;SDS011;10089;47.876;8.346;2023-03-14T06:47:28;0.63;;;0.60;;
9698;SDS011;10089;47.876;8.346;2023-03-14T06:49:53;0.70;;;0.70;;
9698;SDS011;10089;47.876;8.346;2023-03-14T06:52:19;2.50;;;0.70;;
9698;SDS011;10089;47.876;8.346;2023-03-14T06:54:45;0.75;;;0.60;;
9698;SDS011;10089;47.876;8.346;2023-03-14T06:57:11;1.20;;;0.52;;
9698;SDS011;10089;47.876;8.346;2023-03-14T06:59:36;0.40;;;0.40;;
9698;SDS011;10089;47.876;8.346;2023-03-14T07:02:02;0.57;;;0.57;;
9698;SDS011;10089;47.876;8.346;2023-03-14T07:04:28;0.73;;;0.60;;
9698;SDS011;10089;47.876;8.346;2023-03-14T07:06:54;1.13;;;0.68;;
9698;SDS011;10089;47.876;8.346;2023-03-14T07:09:20;0.73;;;0.60;;
9698;SDS011;10089;47.876;8.346;2023-03-14T07:11:45;0.45;;;0.45;;
9698;SDS011;10089;47.876;8.346;2023-03-14T07:14:14;1.60;;;0.80;;
9698;SDS011;10089;47.876;8.346;2023-03-14T07:16:40;0.50;;;0.50;;
9698;SDS011;10089;47.876;8.346;2023-03-14T07:19:06;0.55;;;0.55;;
9698;SDS011;10089;47.876;8.346;2023-03-14T07:21:32;0.98;;;0.50;;
9698;SDS011;10089;47.876;8.346;2023-03-14T07:23:59;1.70;;;0.60;;
9698;SDS011;10089;47.876;8.346;2023-03-14T07:26:25;1.77;;;0.80;;
9698;SDS011;10089;47.876;8.346;2023-03-14T07:28:51;0.60;;;0.60;;
9698;SDS011;10089;47.876;8.346;2023-03-14T07:31:17;0.63;;;0.63;;
9698;SDS011;10089;47.876;8.346;2023-03-14T07:33:42;0.73;;;0.60;;
9698;SDS011;10089;47.876;8.346;2023-03-14T07:36:10;1.85;;;0.85;;
9698;SDS011;10089;47.876;8.346;2023-03-14T07:38:36;0.50;;;0.50;;
9698;SDS011;10089;47.876;8.346;2023-03-14T07:41:05;0.60;;;0.60;;
9698;SDS011;10089;47.876;8.346;2023-03-14T07:43:32;0.60;;;0.60;;
9698;SDS011;10089;47.876;8.346;2023-03-14T07:45:58;0.50;;;0.50;;
9698;SDS011;10089;47.876;8.346;2023-03-14T07:48:24;2.53;;;0.60;;
9698;SDS011;10089;47.876;8.346;2023-03-14T07:50:52;0.50;;;0.50;;
9698;SDS011;10089;47.876;8.346;2023-03-14T07:53:18;1.60;;;0.90;;
9698;SDS011;10089;47.876;8.346;2023-03-14T07:55:44;1.83;;;1.02;;
9698;SDS011;10089;47.876;8.346;2023-03-14T07:58:10;0.50;;;0.50;;
9698;SDS011;10089;47.876;8.346;2023-03-14T08:00:36;0.50;;;0.50;;
9698;SDS011;10089;47.876;8.346;2023-03-14T08:03:02;1.15;;;0.77;;
9698;SDS011;10089;47.876;8.346;2023-03-14T08:05:28;1.25;;;0.60;;
9698;SDS011;10089;47.876;8.346;2023-03-14T08:07:54;0.73;;;0.70;;
9698;SDS011;10089;47.876;8.346;2023-03-14T08:10:20;0.50;;;0.50;;
9698;SDS011;10089;47.876;8.346;2023-03-14T08:12:47;0.73;;;0.60;;
9698;SDS011;10089;47.876;8.346;2023-03-14T08:15:16;4.55;;;0.75;;
9698;SDS011;10089;47.876;8.346;2023-03-14T08:17:41;0.50;;;0.50;;
9698;SDS011;10089;47.876;8.346;2023-03-14T08:20:07;1.30;;;0.55;;
9698;SDS011;10089;47.876;8.346;2023-03-14T08:22:36;0.52;;;0.52;;
9698;SDS011;10089;47.876;8.346;2023-03-14T08:25:02;0.60;;;0.60;;
9698;SDS011;10089;47.876;8.346;2023-03-14T08:27:29;0.50;;;0.50;;
9698;SDS011;10089;47.876;8.346;2023-03-14T08:32:23;1.98;;;0.52;;
9698;SDS011;10089;47.876;8.346;2023-03-14T08:34:49;0.30;;;0.30;;
9698;SDS011;10089;47.876;8.346;2023-03-14T08:37:17;2.78;;;0.60;;
9698;SDS011;10089;47.876;8.346;2023-03-14T08:39:44;0.40;;;0.40;;
9698;SDS011;10089;47.876;8.346;2023-03-14T08:42:12;0.65;;;0.65;;
9698;SDS011;10089;47.876;8.346;2023-03-14T08:44:38;0.40;;;0.40;;
9698;SDS011;10089;47.876;8.346;2023-03-14T08:47:03;0.30;;;0.30;;
9698;SDS011;10089;47.876;8.346;2023-03-14T08:49:29;0.40;;;0.40;;
9698;SDS011;10089;47.876;8.346;2023-03-14T08:51:55;0.50;;;0.50;;
9698;SDS011;10089;47.876;8.346;2023-03-14T08:54:21;0.50;;;0.50;;
9698;SDS011;10089;47.876;8.346;2023-03-14T08:56:46;0.40;;;0.40;;
9698;SDS011;10089;47.876;8.346;2023-03-14T08:59:12;1.73;;;0.70;;
9698;SDS011;10089;47.876;8.346;2023-03-14T09:01:38;0.40;;;0.40;;
9698;SDS011;10089;47.876;8.346;2023-03-14T09:04:04;0.45;;;0.45;;
9698;SDS011;10089;47.876;8.346;2023-03-14T09:06:30;0.50;;;0.50;;
9698;SDS011;10089;47.876;8.346;2023-03-14T09:08:55;0.65;;;0.40;;
9698;SDS011;10089;47.876;8.346;2023-03-14T09:11:21;0.30;;;0.30;;
9698;SDS011;10089;47.876;8.346;2023-03-14T09:13:47;0.60;;;0.60;;
9698;SDS011;10089;47.876;8.346;2023-03-14T09:16:14;0.52;;;0.40;;
9698;SDS011;10089;47.876;8.346;2023-03-14T09:18:39;0.85;;;0.68;;
9698;SDS011;10089;47.876;8.346;2023-03-14T09:21:05;0.50;;;0.50;;
9698;SDS011;10089;47.876;8.346;2023-03-14T09:23:31;0.63;;;0.63;;
9698;SDS011;10089;47.876;8.346;2023-03-14T09:25:58;0.60;;;0.60;;
9698;SDS011;10089;47.876;8.346;2023-03-14T09:28:25;0.90;;;0.90;;
9698;SDS011;10089;47.876;8.346;2023-03-14T09:30:51;4.78;;;2.88;;
9698;SDS011;10089;47.876;8.346;2023-03-14T09:33:17;5.65;;;3.75;;
9698;SDS011;10089;47.876;8.346;2023-03-14T09:35:43;1.33;;;1.15;;
9698;SDS011;10089;47.876;8.346;2023-03-14T09:38:08;0.50;;;0.50;;
9698;SDS011;10089;47.876;8.346;2023-03-14T09:40:35;0.45;;;0.45;;
9698;SDS011;10089;47.876;8.346;2023-03-14T09:43:02;0.40;;;0.40;;
9698;SDS011;10089;47.876;8.346;2023-03-14T09:45:29;0.65;;;0.47;;
9698;SDS011;10089;47.876;8.346;2023-03-14T09:47:58;0.32;;;0.32;;
9698;SDS011;10089;47.876;8.346;2023-03-14T09:50:26;0.40;;;0.40;;
9698;SDS011;10089;47.876;8.346;2023-03-14T09:53:06;0.85;;;0.50;;
9698;SDS011;10089;47.876;8.346;2023-03-14T09:55:41;0.40;;;0.40;;
9698;SDS011;10089;47.876;8.346;2023-03-14T09:58:10;0.50;;;0.50;;
9698;SDS011;10089;47.876;8.346;2023-03-14T10:00:38;0.52;;;0.52;;
9698;SDS011;10089;47.876;8.346;2023-03-14T10:03:28;0.50;;;0.50;;
9698;SDS011;10089;47.876;8.346;2023-03-14T10:05:50;0.40;;;0.40;;
9698;SDS011;10089;47.876;8.346;2023-03-14T10:08:17;0.50;;;0.50;;
9698;SDS011;10089;47.876;8.346;2023-03-14T10:10:42;3.78;;;0.50;;
9698;SDS011;10089;47.876;8.346;2023-03-14T10:13:25;0.73;;;0.52;;
9698;SDS011;10089;47.876;8.346;2023-03-14T10:15:59;1.48;;;0.50;;
9698;SDS011;10089;47.876;8.346;2023-03-14T10:18:25;0.80;;;0.65;;
9698;SDS011;10089;47.876;8.346;2023-03-14T10:21:17;0.82;;;0.50;;
9698;SDS011;10089;47.876;8.346;2023-03-14T10:23:43;1.25;;;0.40;;
9698;SDS011;10089;47.876;8.346;2023-03-14T10:26:15;0.40;;;0.40;;
9698;SDS011;10089;47.876;8.346;2023-03-14T10:28:43;0.40;;;0.40;;
9698;SDS011;10089;47.876;8.346;2023-03-14T10:31:14;0.50;;;0.50;;
9698;SDS011;10089;47.876;8.346;2023-03-14T10:33:40;0.50;;;0.50;;
9698;SDS011;10089;47.876;8.346;2023-03-14T10:36:15;0.70;;;0.70;;
9698;SDS011;10089;47.876;8.346;2023-03-14T10:38:48;1.30;;;0.73;;
9698;SDS011;10089;47.876;8.346;2023-03-14T10:41:24;0.60;;;0.60;;
9698;SDS011;10089;47.876;8.346;2023-03-14T10:43:56;0.70;;;0.70;;
9698;SDS011;10089;47.876;8.346;2023-03-14T10:52:02;0.52;;;0.52;;
9698;SDS011;10089;47.876;8.346;2023-03-14T10:54:37;0.60;;;0.60;;
9698;SDS011;10089;47.876;8.346;2023-03-14T10:57:04;0.70;;;0.70;;
9698;SDS011;10089;47.876;8.346;2023-03-14T10:59:35;0.55;;;0.55;;
9698;SDS011;10089;47.876;8.346;2023-03-14T11:04:44;0.40;;;0.40;;
9698;SDS011;10089;47.876;8.346;2023-03-14T11:07:40;0.40;;;0.40;;
9698;SDS011;10089;47.876;8.346;2023-03-14T11:10:41;0.52;;;0.50;;
9698;SDS011;10089;47.876;8.346;2023-03-14T11:13:15;0.68;;;0.55;;
9698;SDS011;10089;47.876;8.346;2023-03-14T11:26:36;0.43;;;0.43;;
9698;SDS011;10089;47.876;8.346;2023-03-14T11:31:55;0.60;;;0.50;;
9698;SDS011;10089;47.876;8.346;2023-03-14T11:34:33;0.75;;;0.75;;
9698;SDS011;10089;47.876;8.346;2023-03-14T11:37:32;0.50;;;0.50;;
9698;SDS011;10089;47.876;8.346;2023-03-14T11:40:01;0.45;;;0.45;;
9698;SDS011;10089;47.876;8.346;2023-03-14T11:42:31;0.40;;;0.40;;
9698;SDS011;10089;47.876;8.346;2023-03-14T11:44:58;0.38;;;0.38;;
9698;SDS011;10089;47.876;8.346;2023-03-14T11:47:34;0.30;;;0.30;;
9698;SDS011;10089;47.876;8.346;2023-03-14T11:50:12;0.40;;;0.40;;
9698;SDS011;10089;47.876;8.346;2023-03-14T11:52:47;0.30;;;0.30;;
9698;SDS011;10089;47.876;8.346;2023-03-14T11:57:51;0.55;;;0.40;;
9698;SDS011;10089;47.876;8.346;2023-03-14T12:00:21;0.30;;;0.30;;
9698;SDS011;10089;47.876;8.346;2023-03-14T12:13:09;1.30;;;1.10;;
9698;SDS011;10089;47.876;8.346;2023-03-14T12:15:39;1.50;;;1.05;;
9698;SDS011;10089;47.876;8.346;2023-03-14T12:18:27;1.50;;;1.08;;
9698;SDS011;10089;47.876;8.346;2023-03-14T12:20:54;2.03;;;0.70;;
9698;SDS011;10089;47.876;8.346;2023-03-14T12:23:28;1.30;;;1.13;;
9698;SDS011;10089;47.876;8.346;2023-03-14T12:26:15;1.55;;;0.90;;
9698;SDS011;10089;47.876;8.346;2023-03-14T12:29:09;1.42;;;1.10;;
9698;SDS011;10089;47.876;8.346;2023-03-14T12:31:44;1.65;;;0.80;;
9698;SDS011;10089;47.876;8.346;2023-03-14T12:44:40;1.57;;;1.27;;
9698;SDS011;10089;47.876;8.346;2023-03-14T12:49:49;1.58;;;1.10;;
9698;SDS011;10089;47.876;8.346;2023-03-14T12:52:22;1.30;;;1.20;;
9698;SDS011;10089;47.876;8.346;2023-03-14T12:58:15;1.10;;;1.00;;
9698;SDS011;10089;47.876;8.346;2023-03-14T13:01:00;2.57;;;1.50;;
9698;SDS011;10089;47.876;8.346;2023-03-14T13:03:39;1.95;;;1.30;;
9698;SDS011;10089;47.876;8.346;2023-03-14T13:06:11;2.13;;;1.50;;
9698;SDS011;10089;47.876;8.346;2023-03-14T13:08:41;0.98;;;0.90;;
9698;SDS011;10089;47.876;8.346;2023-03-14T13:11:12;2.33;;;1.50;;
9698;SDS011;10089;47.876;8.346;2023-03-14T13:13:48;2.95;;;1.60;;
9698;SDS011;10089;47.876;8.346;2023-03-14T13:16:18;2.88;;;1.27;;
9698;SDS011;10089;47.876;8.346;2023-03-14T13:18:46;2.47;;;1.70;;
9698;SDS011;10089;47.876;8.346;2023-03-14T13:21:27;2.05;;;1.40;;
9698;SDS011;10089;47.876;8.346;2023-03-14T13:24:03;3.33;;;1.92;;
9698;SDS011;10089;47.876;8.346;2023-03-14T13:26:32;0.93;;;0.82;;
9698;SDS011;10089;47.876;8.346;2023-03-14T13:31:58;2.58;;;0.90;;
9698;SDS011;10089;47.876;8.346;2023-03-14T13:34:26;1.10;;;1.00;;
9698;SDS011;10089;47.876;8.346;2023-03-14T13:36:54;2.00;;;1.02;;
9698;SDS011;10089;47.876;8.346;2023-03-14T13:39:22;1.42;;;1.08;;
9698;SDS011;10089;47.876;8.346;2023-03-14T13:41:53;3.40;;;1.02;;
9698;SDS011;10089;47.876;8.346;2023-03-14T13:44:27;3.28;;;1.30;;
9698;SDS011;10089;47.876;8.346;2023-03-14T13:47:02;1.88;;;1.48;;
9698;SDS011;10089;47.876;8.346;2023-03-14T13:49:30;3.15;;;1.40;;
9698;SDS011;10089;47.876;8.346;2023-03-14T13:52:00;2.15;;;1.70;;
9698;SDS011;10089;47.876;8.346;2023-03-14T13:54:27;2.90;;;1.15;;
9698;SDS011;10089;47.876;8.346;2023-03-14T13:57:00;2.97;;;1.23;;
9698;SDS011;10089;47.876;8.346;2023-03-14T13:59:28;2.55;;;1.27;;
9698;SDS011;10089;47.876;8.346;2023-03-14T14:01:55;1.77;;;1.30;;
9698;SDS011;10089;47.876;8.346;2023-03-14T14:04:24;2.20;;;1.13;;
9698;SDS011;10089;47.876;8.346;2023-03-14T14:07:06;3.53;;;1.30;;
9698;SDS011;10089;47.876;8.346;2023-03-14T14:09:38;1.73;;;1.20;;
9698;SDS011;10089;47.876;8.346;2023-03-14T14:17:08;5.93;;;1.40;;
9698;SDS011;10089;47.876;8.346;2023-03-14T14:19:37;1.40;;;1.20;;
9698;SDS011;10089;47.876;8.346;2023-03-14T14:22:05;1.63;;;1.10;;
9698;SDS011;10089;47.876;8.346;2023-03-14T14:24:33;1.98;;;1.40;;
9698;SDS011;10089;47.876;8.346;2023-03-14T14:29:33;3.05;;;1.40;;
9698;SDS011;10089;47.876;8.346;2023-03-14T14:32:20;2.28;;;1.33;;
9698;SDS011;10089;47.876;8.346;2023-03-14T14:34:46;2.25;;;1.58;;
9698;SDS011;10089;47.876;8.346;2023-03-14T14:37:22;2.95;;;1.65;;
9698;SDS011;10089;47.876;8.346;2023-03-14T14:39:56;4.95;;;2.08;;
9698;SDS011;10089;47.876;8.346;2023-03-14T14:42:25;2.25;;;1.52;;
9698;SDS011;10089;47.876;8.346;2023-03-14T14:44:56;3.40;;;1.45;;
9698;SDS011;10089;47.876;8.346;2023-03-14T14:47:24;3.67;;;1.20;;
9698;SDS011;10089;47.876;8.346;2023-03-14T14:49:52;5.18;;;1.65;;
9698;SDS011;10089;47.876;8.346;2023-03-14T14:52:20;3.05;;;1.77;;
9698;SDS011;10089;47.876;8.346;2023-03-14T14:54:57;3.25;;;1.20;;
9698;SDS011;10089;47.876;8.346;2023-03-14T14:57:26;2.25;;;1.05;;
9698;SDS011;10089;47.876;8.346;2023-03-14T14:59:56;1.50;;;1.25;;
9698;SDS011;10089;47.876;8.346;2023-03-14T15:05:27;4.22;;;1.50;;
9698;SDS011;10089;47.876;8.346;2023-03-14T15:07:55;4.22;;;1.50;;
9698;SDS011;10089;47.876;8.346;2023-03-14T15:10:23;2.05;;;1.27;;
9698;SDS011;10089;47.876;8.346;2023-03-14T15:12:50;2.95;;;1.40;;
9698;SDS011;10089;47.876;8.346;2023-03-14T15:15:16;5.93;;;3.22;;
9698;SDS011;10089;47.876;8.346;2023-03-14T15:17:43;4.72;;;2.60;;
9698;SDS011;10089;47.876;8.346;2023-03-14T15:20:10;15.20;;;8.23;;
9698;SDS011;10089;47.876;8.346;2023-03-14T15:22:38;7.22;;;4.05;;
9698;SDS011;10089;47.876;8.346;2023-03-14T15:25:05;1.42;;;1.20;;
9698;SDS011;10089;47.876;8.346;2023-03-14T15:27:31;4.32;;;1.52;;
9698;SDS011;10089;47.876;8.346;2023-03-14T15:29:58;3.75;;;1.42;;
9698;SDS011;10089;47.876;8.346;2023-03-14T15:32:27;4.50;;;1.50;;
9698;SDS011;10089;47.876;8.346;2023-03-14T15:34:56;5.25;;;1.50;;
9698;SDS011;10089;47.876;8.346;2023-03-14T15:37:22;6.38;;;1.42;;
9698;SDS011;10089;47.876;8.346;2023-03-14T15:39:48;5.95;;;1.55;;
9698;SDS011;10089;47.876;8.346;2023-03-14T15:42:14;5.82;;;1.45;;
9698;SDS011;10089;47.876;8.346;2023-03-14T15:44:39;3.67;;;1.60;;
9698;SDS011;10089;47.876;8.346;2023-03-14T15:47:05;5.72;;;1.85;;
9698;SDS011;10089;47.876;8.346;2023-03-14T15:49:33;2.17;;;1.10;;
9698;SDS011;10089;47.876;8.346;2023-03-14T15:51:59;3.47;;;1.17;;
9698;SDS011;10089;47.876;8.346;2023-03-14T15:54:25;4.05;;;1.13;;
9698;SDS011;10089;47.876;8.346;2023-03-14T15:56:54;3.95;;;1.35;;
9698;SDS011;10089;47.876;8.346;2023-03-14T15:59:21;2.17;;;1.23;;
9698;SDS011;10089;47.876;8.346;2023-03-14T16:01:48;6.15;;;1.67;;
9698;SDS011;10089;47.876;8.346;2023-03-14T16:04:14;4.63;;;1.58;;
9698;SDS011;10089;47.876;8.346;2023-03-14T16:06:39;2.30;;;1.83;;
9698;SDS011;10089;47.876;8.346;2023-03-14T16:09:06;2.67;;;1.60;;
9698;SDS011;10089;47.876;8.346;2023-03-14T16:11:32;5.32;;;1.70;;
9698;SDS011;10089;47.876;8.346;2023-03-14T16:13:58;4.03;;;2.88;;
9698;SDS011;10089;47.876;8.346;2023-03-14T16:16:24;2.75;;;1.45;;
9698;SDS011;10089;47.876;8.346;2023-03-14T16:18:49;5.05;;;1.90;;
9698;SDS011;10089;47.876;8.346;2023-03-14T16:21:16;4.70;;;2.80;;
9698;SDS011;10089;47.876;8.346;2023-03-14T16:23:43;5.10;;;2.78;;
9698;SDS011;10089;47.876;8.346;2023-03-14T16:26:12;5.55;;;2.47;;
9698;SDS011;10089;47.876;8.346;2023-03-14T16:28:43;4.50;;;1.25;;